sensor_id;sensor_type;location;lat;lon;timestamp;pressure;altitude;pressure_sealevel;temperature;humidity
56600;BME280;51832;48.152;11.530;2023-02-04T00:01:02;96395.09;;;7.30;80.96
56600;BME280;51832;48.152;11.530;2023-02-04T00:06:02;96388.03;;;7.16;81.74
56600;BME280;51832;48.152;11.530;2023-02-04T00:11:03;96372.69;;;7.27;82.13
56600;BME280;51832;48.152;11.530;2023-02-04T00:16:04;96436.50;;;6.89;83.45
56600;BME280;51832;48.152;11.530;2023-02-04T00:21:05;96385.63;;;7.43;82.06
56600;BME280;51832;48.152;11.530;2023-02-04T00:26:05;96382.75;;;7.53;81.60
56600;BME280;51832;48.152;11.530;2023-02-04T00:31:06;96387.97;;;7.24;82.12
56600;BME280;51832;48.152;11.530;2023-02-04T00:36:07;96376.44;;;6.95;83.79
56600;BME280;51832;48.152;11.530;2023-02-04T00:41:08;96411.88;;;7.21;83.19
56600;BME280;51832;48.152;11.530;2023-02-04T00:46:08;96397.25;;;7.26;83.03
56600;BME280;51832;48.152;11.530;2023-02-04T00:51:09;96401.84;;;7.09;83.18
56600;BME280;51832;48.152;11.530;2023-02-04T00:56:10;96415.78;;;7.39;82.14
56600;BME280;51832;48.152;11.530;2023-02-04T01:01:11;96430.25;;;7.50;81.92
56600;BME280;51832;48.152;11.530;2023-02-04T01:06:11;96434.38;;;7.30;83.31
56600;BME280;51832;48.152;11.530;2023-02-04T01:11:12;96445.06;;;7.58;81.96
56600;BME280;51832;48.152;11.530;2023-02-04T01:16:13;96432.47;;;7.38;82.33
56600;BME280;51832;48.152;11.530;2023-02-04T01:21:14;96437.94;;;7.14;82.15
56600;BME280;51832;48.152;11.530;2023-02-04T01:26:15;96449.59;;;7.26;81.36
56600;BME280;51832;48.152;11.530;2023-02-04T01:31:16;96442.13;;;7.23;82.41
56600;BME280;51832;48.152;11.530;2023-02-04T01:36:17;96465.13;;;7.28;81.81
56600;BME280;51832;48.152;11.530;2023-02-04T01:41:20;96442.84;;;7.84;79.54
56600;BME280;51832;48.152;11.530;2023-02-04T01:46:21;96471.81;;;7.68;79.98
56600;BME280;51832;48.152;11.530;2023-02-04T01:51:25;96473.19;;;7.64;79.50
56600;BME280;51832;48.152;11.530;2023-02-04T01:56:29;96462.41;;;7.59;80.30
56600;BME280;51832;48.152;11.530;2023-02-04T02:01:41;96466.50;;;7.61;80.18
56600;BME280;51832;48.152;11.530;2023-02-04T02:06:46;96485.22;;;7.73;79.63
56600;BME280;51832;48.152;11.530;2023-02-04T02:11:48;96472.56;;;7.24;81.47
56600;BME280;51832;48.152;11.530;2023-02-04T02:16:49;96475.81;;;7.64;80.36
56600;BME280;51832;48.152;11.530;2023-02-04T02:22:01;96492.69;;;7.24;82.35
56600;BME280;51832;48.152;11.530;2023-02-04T02:27:07;96503.16;;;7.24;81.79
56600;BME280;51832;48.152;11.530;2023-02-04T02:32:09;96515.22;;;7.47;81.44
56600;BME280;51832;48.152;11.530;2023-02-04T02:37:10;96510.63;;;7.49;81.24
56600;BME280;51832;48.152;11.530;2023-02-04T02:42:14;96504.84;;;7.92;80.02
56600;BME280;51832;48.152;11.530;2023-02-04T02:47:17;96501.22;;;8.07;79.16
56600;BME280;51832;48.152;11.530;2023-02-04T02:52:19;96513.88;;;7.89;79.77
56600;BME280;51832;48.152;11.530;2023-02-04T02:57:21;96503.19;;;7.76;79.55
56600;BME280;51832;48.152;11.530;2023-02-04T03:02:22;96521.88;;;7.73;79.35
56600;BME280;51832;48.152;11.530;2023-02-04T03:07:24;96522.38;;;7.54;79.09
56600;BME280;51832;48.152;11.530;2023-02-04T03:12:25;96530.00;;;7.18;80.26
56600;BME280;51832;48.152;11.530;2023-02-04T03:17:25;96534.53;;;7.46;78.83
56600;BME280;51832;48.152;11.530;2023-02-04T03:22:26;96545.94;;;7.31;78.43
56600;BME280;51832;48.152;11.530;2023-02-04T03:27:27;96547.94;;;6.98;79.20
56600;BME280;51832;48.152;11.530;2023-02-04T03:32:28;96545.53;;;6.96;79.52
56600;BME280;51832;48.152;11.530;2023-02-04T03:37:28;96559.69;;;7.02;79.44
56600;BME280;51832;48.152;11.530;2023-02-04T03:42:29;96561.31;;;7.57;77.86
56600;BME280;51832;48.152;11.530;2023-02-04T03:47:29;96585.88;;;7.93;76.27
56600;BME280;51832;48.152;11.530;2023-02-04T03:52:30;96587.66;;;7.55;77.27
56600;BME280;51832;48.152;11.530;2023-02-04T03:57:30;96595.59;;;7.70;75.99
56600;BME280;51832;48.152;11.530;2023-02-04T04:02:30;96613.25;;;7.22;76.93
56600;BME280;51832;48.152;11.530;2023-02-04T04:07:31;96623.09;;;7.20;76.10
56600;BME280;51832;48.152;11.530;2023-02-04T04:12:31;96624.56;;;7.45;75.25
56600;BME280;51832;48.152;11.530;2023-02-04T04:17:32;96622.69;;;7.00;76.41
56600;BME280;51832;48.152;11.530;2023-02-04T04:22:32;96632.13;;;7.09;75.95
56600;BME280;51832;48.152;11.530;2023-02-04T04:27:33;96627.34;;;7.21;75.11
56600;BME280;51832;48.152;11.530;2023-02-04T04:32:34;96624.53;;;6.84;74.99
56600;BME280;51832;48.152;11.530;2023-02-04T04:37:34;96633.19;;;6.84;74.21
56600;BME280;51832;48.152;11.530;2023-02-04T04:42:34;96647.19;;;6.68;74.49
56600;BME280;51832;48.152;11.530;2023-02-04T04:47:35;96654.03;;;6.61;74.92
56600;BME280;51832;48.152;11.530;2023-02-04T04:52:35;96659.31;;;6.45;74.90
56600;BME280;51832;48.152;11.530;2023-02-04T04:57:36;96655.84;;;6.61;74.05
56600;BME280;51832;48.152;11.530;2023-02-04T05:02:36;96661.25;;;6.59;73.83
56600;BME280;51832;48.152;11.530;2023-02-04T05:07:37;96687.34;;;6.75;73.82
56600;BME280;51832;48.152;11.530;2023-02-04T05:12:37;96684.41;;;6.78;73.05
56600;BME280;51832;48.152;11.530;2023-02-04T05:17:37;96671.06;;;6.49;72.98
56600;BME280;51832;48.152;11.530;2023-02-04T05:22:38;96682.63;;;6.71;73.02
56600;BME280;51832;48.152;11.530;2023-02-04T05:27:38;96699.00;;;6.57;72.64
56600;BME280;51832;48.152;11.530;2023-02-04T05:32:39;96700.47;;;6.67;71.84
56600;BME280;51832;48.152;11.530;2023-02-04T05:37:39;96716.91;;;7.93;72.54
56600;BME280;51832;48.152;11.530;2023-02-04T05:42:40;96717.69;;;8.47;72.17
56600;BME280;51832;48.152;11.530;2023-02-04T05:47:41;96714.59;;;7.98;68.71
56600;BME280;51832;48.152;11.530;2023-02-04T05:52:41;96720.38;;;7.32;69.36
56600;BME280;51832;48.152;11.530;2023-02-04T05:57:42;96743.59;;;6.80;71.20
56600;BME280;51832;48.152;11.530;2023-02-04T06:02:42;96752.06;;;6.90;71.86
56600;BME280;51832;48.152;11.530;2023-02-04T06:07:43;96770.88;;;6.93;71.99
56600;BME280;51832;48.152;11.530;2023-02-04T06:12:43;96775.97;;;6.70;73.42
56600;BME280;51832;48.152;11.530;2023-02-04T06:17:44;96787.09;;;6.81;73.39
56600;BME280;51832;48.152;11.530;2023-02-04T06:22:44;96792.28;;;6.89;73.39
56600;BME280;51832;48.152;11.530;2023-02-04T06:27:44;96800.16;;;6.72;73.37
56600;BME280;51832;48.152;11.530;2023-02-04T06:32:45;96803.38;;;7.15;72.49
56600;BME280;51832;48.152;11.530;2023-02-04T06:37:45;96820.59;;;6.77;73.76
56600;BME280;51832;48.152;11.530;2023-02-04T06:42:45;96807.66;;;6.92;73.57
56600;BME280;51832;48.152;11.530;2023-02-04T06:47:46;96800.94;;;7.05;72.81
56600;BME280;51832;48.152;11.530;2023-02-04T06:52:46;96811.75;;;6.86;73.46
56600;BME280;51832;48.152;11.530;2023-02-04T06:57:47;96819.94;;;6.75;73.07
56600;BME280;51832;48.152;11.530;2023-02-04T07:02:48;96822.91;;;6.56;73.22
56600;BME280;51832;48.152;11.530;2023-02-04T07:07:48;96825.00;;;6.93;72.34
56600;BME280;51832;48.152;11.530;2023-02-04T07:12:48;96841.66;;;6.84;71.53
56600;BME280;51832;48.152;11.530;2023-02-04T07:17:49;96833.19;;;6.73;71.88
56600;BME280;51832;48.152;11.530;2023-02-04T07:22:49;96865.72;;;7.03;70.93
56600;BME280;51832;48.152;11.530;2023-02-04T07:27:50;96861.31;;;6.88;70.89
56600;BME280;51832;48.152;11.530;2023-02-04T07:32:50;96873.41;;;6.97;71.16
56600;BME280;51832;48.152;11.530;2023-02-04T07:37:50;96874.56;;;6.94;70.21
56600;BME280;51832;48.152;11.530;2023-02-04T07:42:51;96893.50;;;6.64;70.69
56600;BME280;51832;48.152;11.530;2023-02-04T07:47:51;96886.44;;;6.56;70.90
56600;BME280;51832;48.152;11.530;2023-02-04T07:52:52;96893.69;;;6.95;69.84
56600;BME280;51832;48.152;11.530;2023-02-04T07:57:52;96905.06;;;6.37;70.20
56600;BME280;51832;48.152;11.530;2023-02-04T08:02:52;96892.81;;;6.46;70.07
56600;BME280;51832;48.152;11.530;2023-02-04T08:07:53;96907.22;;;6.58;69.94
56600;BME280;51832;48.152;11.530;2023-02-04T08:12:53;96899.53;;;6.48;69.69
56600;BME280;51832;48.152;11.530;2023-02-04T08:17:54;96903.31;;;6.70;69.58
56600;BME280;51832;48.152;11.530;2023-02-04T08:22:54;96914.44;;;6.64;69.51
56600;BME280;51832;48.152;11.530;2023-02-04T08:27:55;96922.63;;;6.77;69.52
56600;BME280;51832;48.152;11.530;2023-02-04T08:32:55;96927.69;;;7.03;68.46
56600;BME280;51832;48.152;11.530;2023-02-04T08:37:56;96936.53;;;7.02;68.32
56600;BME280;51832;48.152;11.530;2023-02-04T08:42:56;96944.72;;;7.15;67.26
56600;BME280;51832;48.152;11.530;2023-02-04T08:47:56;96951.41;;;7.58;66.59
56600;BME280;51832;48.152;11.530;2023-02-04T08:52:57;96946.50;;;7.47;66.16
56600;BME280;51832;48.152;11.530;2023-02-04T08:57:57;96947.91;;;7.90;65.14
56600;BME280;51832;48.152;11.530;2023-02-04T09:02:58;96947.13;;;8.20;64.48
56600;BME280;51832;48.152;11.530;2023-02-04T09:07:58;96966.16;;;8.14;64.53
56600;BME280;51832;48.152;11.530;2023-02-04T09:12:59;96967.84;;;7.99;64.37
56600;BME280;51832;48.152;11.530;2023-02-04T09:17:59;96978.22;;;7.76;64.54
56600;BME280;51832;48.152;11.530;2023-02-04T09:23:11;96986.56;;;7.88;64.33
56600;BME280;51832;48.152;11.530;2023-02-04T09:28:12;96979.34;;;7.82;64.28
56600;BME280;51832;48.152;11.530;2023-02-04T09:33:14;96986.84;;;7.93;63.88
56600;BME280;51832;48.152;11.530;2023-02-04T09:38:18;96996.56;;;7.84;64.19
56600;BME280;51832;48.152;11.530;2023-02-04T09:43:23;97002.41;;;7.95;64.20
56600;BME280;51832;48.152;11.530;2023-02-04T09:48:25;97010.41;;;8.17;63.47
56600;BME280;51832;48.152;11.530;2023-02-04T09:53:26;97008.00;;;8.00;64.41
56600;BME280;51832;48.152;11.530;2023-02-04T09:58:30;97012.94;;;7.87;64.59
56600;BME280;51832;48.152;11.530;2023-02-04T10:03:32;97008.19;;;7.74;64.38
56600;BME280;51832;48.152;11.530;2023-02-04T10:08:34;97017.41;;;8.25;62.91
56600;BME280;51832;48.152;11.530;2023-02-04T10:13:41;97017.00;;;7.97;63.30
56600;BME280;51832;48.152;11.530;2023-02-04T10:18:43;97031.09;;;7.96;63.76
56600;BME280;51832;48.152;11.530;2023-02-04T10:23:46;97028.84;;;8.48;62.38
56600;BME280;51832;48.152;11.530;2023-02-04T10:28:47;97024.34;;;8.18;63.31
56600;BME280;51832;48.152;11.530;2023-02-04T10:34:00;97033.72;;;7.96;65.22
56600;BME280;51832;48.152;11.530;2023-02-04T10:39:09;97030.47;;;7.21;68.33
56600;BME280;51832;48.152;11.530;2023-02-04T10:44:12;97019.69;;;7.65;67.56
56600;BME280;51832;48.152;11.530;2023-02-04T10:49:22;97023.75;;;7.59;66.50
56600;BME280;51832;48.152;11.530;2023-02-04T10:54:27;97024.38;;;7.94;66.19
56600;BME280;51832;48.152;11.530;2023-02-04T10:59:33;97021.38;;;8.13;65.40
56600;BME280;51832;48.152;11.530;2023-02-04T11:04:35;97033.47;;;8.38;64.65
56600;BME280;51832;48.152;11.530;2023-02-04T11:09:35;97035.66;;;8.10;65.35
56600;BME280;51832;48.152;11.530;2023-02-04T11:14:36;97035.56;;;7.63;65.71
56600;BME280;51832;48.152;11.530;2023-02-04T11:19:37;97022.25;;;7.16;66.32
56600;BME280;51832;48.152;11.530;2023-02-04T11:24:38;97012.25;;;6.45;67.50
56600;BME280;51832;48.152;11.530;2023-02-04T11:29:38;97016.78;;;6.77;67.37
56600;BME280;51832;48.152;11.530;2023-02-04T11:34:45;97007.91;;;7.36;67.02
56600;BME280;51832;48.152;11.530;2023-02-04T11:39:48;97020.00;;;7.62;65.28
56600;BME280;51832;48.152;11.530;2023-02-04T11:44:51;97013.31;;;7.51;65.32
56600;BME280;51832;48.152;11.530;2023-02-04T11:49:57;97022.16;;;8.30;62.74
56600;BME280;51832;48.152;11.530;2023-02-04T11:55:00;97023.28;;;8.82;59.24
56600;BME280;51832;48.152;11.530;2023-02-04T12:00:00;97033.50;;;9.91;56.17
56600;BME280;51832;48.152;11.530;2023-02-04T12:05:11;97029.28;;;9.22;57.76
56600;BME280;51832;48.152;11.530;2023-02-04T12:15:21;97026.44;;;10.07;54.32
56600;BME280;51832;48.152;11.530;2023-02-04T12:20:25;97024.50;;;9.48;55.60
56600;BME280;51832;48.152;11.530;2023-02-04T12:25:25;97025.41;;;10.30;53.77
56600;BME280;51832;48.152;11.530;2023-02-04T12:30:26;97026.66;;;9.68;55.74
56600;BME280;51832;48.152;11.530;2023-02-04T12:35:26;97017.06;;;10.27;53.03
56600;BME280;51832;48.152;11.530;2023-02-04T12:40:27;97028.50;;;10.49;51.85
56600;BME280;51832;48.152;11.530;2023-02-04T12:45:27;97023.06;;;9.83;54.38
56600;BME280;51832;48.152;11.530;2023-02-04T12:50:27;97020.47;;;10.13;53.19
56600;BME280;51832;48.152;11.530;2023-02-04T12:55:28;97017.03;;;9.97;53.67
56600;BME280;51832;48.152;11.530;2023-02-04T13:00:29;97014.47;;;10.04;53.84
56600;BME280;51832;48.152;11.530;2023-02-04T13:05:30;97003.06;;;9.97;52.92
56600;BME280;51832;48.152;11.530;2023-02-04T13:10:30;97011.25;;;10.46;51.99
56600;BME280;51832;48.152;11.530;2023-02-04T13:15:30;97005.16;;;10.60;51.72
56600;BME280;51832;48.152;11.530;2023-02-04T13:20:31;97018.69;;;10.28;51.52
56600;BME280;51832;48.152;11.530;2023-02-04T13:25:31;97009.50;;;10.09;51.65
56600;BME280;51832;48.152;11.530;2023-02-04T13:30:31;97032.72;;;9.45;54.22
56600;BME280;51832;48.152;11.530;2023-02-04T13:35:33;97041.03;;;8.33;57.98
56600;BME280;51832;48.152;11.530;2023-02-04T13:40:33;97042.09;;;8.94;56.62
56600;BME280;51832;48.152;11.530;2023-02-04T13:45:34;97046.75;;;8.76;54.82
56600;BME280;51832;48.152;11.530;2023-02-04T13:50:34;97063.88;;;7.92;58.18
56600;BME280;51832;48.152;11.530;2023-02-04T13:55:35;97066.91;;;8.28;57.80
56600;BME280;51832;48.152;11.530;2023-02-04T14:00:35;97077.56;;;8.43;57.10
56600;BME280;51832;48.152;11.530;2023-02-04T14:05:35;97082.22;;;8.72;58.30
56600;BME280;51832;48.152;11.530;2023-02-04T14:10:36;97087.31;;;8.65;56.99
56600;BME280;51832;48.152;11.530;2023-02-04T14:15:36;97084.38;;;8.68;54.90
56600;BME280;51832;48.152;11.530;2023-02-04T14:20:37;97086.88;;;8.93;54.73
56600;BME280;51832;48.152;11.530;2023-02-04T14:25:37;97097.44;;;8.05;56.73
56600;BME280;51832;48.152;11.530;2023-02-04T14:30:38;97096.50;;;8.61;54.39
56600;BME280;51832;48.152;11.530;2023-02-04T14:35:38;97098.34;;;8.61;53.10
56600;BME280;51832;48.152;11.530;2023-02-04T14:40:39;97103.66;;;9.22;52.12
56600;BME280;51832;48.152;11.530;2023-02-04T14:45:40;97105.09;;;8.94;52.31
56600;BME280;51832;48.152;11.530;2023-02-04T14:50:40;97104.88;;;9.04;51.98
56600;BME280;51832;48.152;11.530;2023-02-04T14:55:41;97108.13;;;9.14;52.15
56600;BME280;51832;48.152;11.530;2023-02-04T15:00:41;97116.28;;;9.19;51.72
56600;BME280;51832;48.152;11.530;2023-02-04T15:05:41;97112.25;;;8.69;53.54
56600;BME280;51832;48.152;11.530;2023-02-04T15:10:42;97112.81;;;8.96;52.65
56600;BME280;51832;48.152;11.530;2023-02-04T15:15:42;97116.88;;;8.59;53.70
56600;BME280;51832;48.152;11.530;2023-02-04T15:20:42;97118.81;;;8.73;53.33
56600;BME280;51832;48.152;11.530;2023-02-04T15:25:43;97115.94;;;8.36;54.74
56600;BME280;51832;48.152;11.530;2023-02-04T15:30:44;97121.34;;;8.98;52.29
56600;BME280;51832;48.152;11.530;2023-02-04T15:35:44;97132.53;;;8.83;53.67
56600;BME280;51832;48.152;11.530;2023-02-04T15:40:45;97143.75;;;9.08;52.37
56600;BME280;51832;48.152;11.530;2023-02-04T15:45:45;97143.13;;;8.59;53.01
56600;BME280;51832;48.152;11.530;2023-02-04T15:50:46;97152.22;;;8.87;53.09
56600;BME280;51832;48.152;11.530;2023-02-04T15:55:46;97152.22;;;8.87;53.17
56600;BME280;51832;48.152;11.530;2023-02-04T16:00:47;97159.69;;;8.51;53.23
56600;BME280;51832;48.152;11.530;2023-02-04T16:05:47;97161.97;;;8.30;53.48
56600;BME280;51832;48.152;11.530;2023-02-04T16:10:47;97171.66;;;8.38;53.60
56600;BME280;51832;48.152;11.530;2023-02-04T16:15:48;97164.47;;;8.32;67.02
56600;BME280;51832;48.152;11.530;2023-02-04T16:20:48;97160.47;;;11.04;73.08
56600;BME280;51832;48.152;11.530;2023-02-04T16:25:49;97163.38;;;10.05;53.94
56600;BME280;51832;48.152;11.530;2023-02-04T16:30:49;97167.59;;;9.69;52.82
56600;BME280;51832;48.152;11.530;2023-02-04T16:36:05;97190.53;;;9.05;52.54
56600;BME280;51832;48.152;11.530;2023-02-04T16:41:06;97198.69;;;9.18;51.35
56600;BME280;51832;48.152;11.530;2023-02-04T16:46:07;97207.34;;;8.79;52.22
56600;BME280;51832;48.152;11.530;2023-02-04T16:51:07;97212.97;;;8.19;54.54
56600;BME280;51832;48.152;11.530;2023-02-04T16:56:08;97207.06;;;8.34;54.36
56600;BME280;51832;48.152;11.530;2023-02-04T17:01:08;97209.31;;;8.85;53.36
56600;BME280;51832;48.152;11.530;2023-02-04T17:06:08;97216.06;;;8.47;57.49
56600;BME280;51832;48.152;11.530;2023-02-04T17:11:09;97219.19;;;8.35;55.61
56600;BME280;51832;48.152;11.530;2023-02-04T17:16:28;97224.78;;;8.40;55.36
56600;BME280;51832;48.152;11.530;2023-02-04T17:21:29;97232.66;;;8.40;55.46
56600;BME280;51832;48.152;11.530;2023-02-04T17:26:30;97236.97;;;7.74;56.40
56600;BME280;51832;48.152;11.530;2023-02-04T17:31:36;97231.22;;;7.71;56.52
56600;BME280;51832;48.152;11.530;2023-02-04T17:36:36;97238.09;;;7.72;56.11
56600;BME280;51832;48.152;11.530;2023-02-04T17:41:37;97238.41;;;7.61;55.96
56600;BME280;51832;48.152;11.530;2023-02-04T17:46:38;97236.56;;;7.45;56.30
56600;BME280;51832;48.152;11.530;2023-02-04T17:51:38;97242.00;;;7.18;56.26
56600;BME280;51832;48.152;11.530;2023-02-04T17:56:39;97260.13;;;7.11;56.39
56600;BME280;51832;48.152;11.530;2023-02-04T18:01:40;97248.97;;;7.35;52.92
56600;BME280;51832;48.152;11.530;2023-02-04T18:06:41;97253.66;;;6.97;53.63
56600;BME280;51832;48.152;11.530;2023-02-04T18:11:42;97263.31;;;6.71;54.01
56600;BME280;51832;48.152;11.530;2023-02-04T18:16:43;97259.50;;;7.17;52.17
56600;BME280;51832;48.152;11.530;2023-02-04T18:21:44;97252.09;;;6.53;53.97
56600;BME280;51832;48.152;11.530;2023-02-04T18:26:46;97251.97;;;7.14;52.12
56600;BME280;51832;48.152;11.530;2023-02-04T18:32:24;97252.19;;;7.29;52.31
56600;BME280;51832;48.152;11.530;2023-02-04T18:37:36;97249.66;;;7.11;52.73
56600;BME280;51832;48.152;11.530;2023-02-04T18:42:41;97249.63;;;7.37;51.20
56600;BME280;51832;48.152;11.530;2023-02-04T18:47:42;97261.06;;;7.36;50.95
56600;BME280;51832;48.152;11.530;2023-02-04T18:52:43;97258.81;;;7.99;61.25
56600;BME280;51832;48.152;11.530;2023-02-04T18:57:44;97255.34;;;7.91;50.94
56600;BME280;51832;48.152;11.530;2023-02-04T19:02:57;97270.34;;;7.64;51.05
56600;BME280;51832;48.152;11.530;2023-02-04T19:18:38;97261.66;;;7.22;51.50
56600;BME280;51832;48.152;11.530;2023-02-04T19:23:41;97268.81;;;7.45;51.14
56600;BME280;51832;48.152;11.530;2023-02-04T19:28:42;97261.69;;;7.30;51.20
56600;BME280;51832;48.152;11.530;2023-02-04T19:33:43;97253.00;;;7.29;51.26
56600;BME280;51832;48.152;11.530;2023-02-04T19:38:45;97255.25;;;7.16;51.85
56600;BME280;51832;48.152;11.530;2023-02-04T19:43:47;97259.06;;;6.96;52.26
56600;BME280;51832;48.152;11.530;2023-02-04T19:48:47;97253.31;;;6.92;51.87
56600;BME280;51832;48.152;11.530;2023-02-04T19:53:49;97255.06;;;6.84;52.70
56600;BME280;51832;48.152;11.530;2023-02-04T19:58:53;97257.59;;;6.93;52.64
56600;BME280;51832;48.152;11.530;2023-02-04T20:03:54;97264.47;;;6.68;52.75
56600;BME280;51832;48.152;11.530;2023-02-04T20:08:59;97267.69;;;6.88;52.29
56600;BME280;51832;48.152;11.530;2023-02-04T20:19:11;97272.50;;;7.01;52.27
56600;BME280;51832;48.152;11.530;2023-02-04T20:24:33;97262.97;;;6.48;53.67
56600;BME280;51832;48.152;11.530;2023-02-04T20:29:34;97262.28;;;6.64;53.54
56600;BME280;51832;48.152;11.530;2023-02-04T20:34:35;97265.63;;;7.00;52.48
56600;BME280;51832;48.152;11.530;2023-02-04T20:39:38;97273.38;;;6.84;52.60
56600;BME280;51832;48.152;11.530;2023-02-04T20:44:38;97277.22;;;6.28;54.22
56600;BME280;51832;48.152;11.530;2023-02-04T20:49:40;97279.09;;;6.61;53.28
56600;BME280;51832;48.152;11.530;2023-02-04T20:54:41;97280.63;;;6.90;52.49
56600;BME280;51832;48.152;11.530;2023-02-04T20:59:42;97301.59;;;6.98;52.24
56600;BME280;51832;48.152;11.530;2023-02-04T21:04:44;97295.63;;;6.88;51.52
56600;BME280;51832;48.152;11.530;2023-02-04T21:09:52;97312.06;;;6.98;51.85
56600;BME280;51832;48.152;11.530;2023-02-04T21:14:53;97311.09;;;6.99;51.61
56600;BME280;51832;48.152;11.530;2023-02-04T21:19:54;97317.63;;;6.95;51.93
56600;BME280;51832;48.152;11.530;2023-02-04T21:24:54;97312.16;;;6.88;53.13
56600;BME280;51832;48.152;11.530;2023-02-04T21:29:54;97314.63;;;7.16;55.20
56600;BME280;51832;48.152;11.530;2023-02-04T21:34:55;97317.91;;;7.18;51.61
56600;BME280;51832;48.152;11.530;2023-02-04T21:39:55;97304.03;;;6.73;51.75
56600;BME280;51832;48.152;11.530;2023-02-04T21:44:56;97306.31;;;6.15;54.47
56600;BME280;51832;48.152;11.530;2023-02-04T21:50:00;97305.44;;;6.42;53.78
56600;BME280;51832;48.152;11.530;2023-02-04T21:55:00;97315.53;;;6.37;53.79
56600;BME280;51832;48.152;11.530;2023-02-04T22:00:01;97321.28;;;6.40;53.58
56600;BME280;51832;48.152;11.530;2023-02-04T22:05:03;97323.75;;;6.86;51.75
56600;BME280;51832;48.152;11.530;2023-02-04T22:10:15;97333.28;;;6.51;52.02
56600;BME280;51832;48.152;11.530;2023-02-04T22:15:17;97327.72;;;6.72;51.95
56600;BME280;51832;48.152;11.530;2023-02-04T22:20:18;97329.78;;;6.60;52.26
56600;BME280;51832;48.152;11.530;2023-02-04T22:25:20;97342.53;;;6.81;52.21
56600;BME280;51832;48.152;11.530;2023-02-04T22:30:21;97348.81;;;6.70;52.65
56600;BME280;51832;48.152;11.530;2023-02-04T22:35:22;97348.91;;;6.61;52.79
56600;BME280;51832;48.152;11.530;2023-02-04T22:40:22;97342.78;;;6.52;53.02
56600;BME280;51832;48.152;11.530;2023-02-04T22:45:22;97334.31;;;6.58;52.58
56600;BME280;51832;48.152;11.530;2023-02-04T22:50:23;97336.06;;;6.50;53.21
56600;BME280;51832;48.152;11.530;2023-02-04T22:55:23;97332.91;;;6.46;53.33
56600;BME280;51832;48.152;11.530;2023-02-04T23:00:24;97329.84;;;6.51;53.32
56600;BME280;51832;48.152;11.530;2023-02-04T23:05:25;97319.31;;;6.60;52.90
56600;BME280;51832;48.152;11.530;2023-02-04T23:10:25;97325.06;;;6.46;53.48
56600;BME280;51832;48.152;11.530;2023-02-04T23:15:25;97324.03;;;6.39;53.78
56600;BME280;51832;48.152;11.530;2023-02-04T23:20:26;97312.66;;;6.30;53.78
56600;BME280;51832;48.152;11.530;2023-02-04T23:25:26;97314.16;;;6.51;53.58
56600;BME280;51832;48.152;11.530;2023-02-04T23:30:27;97320.47;;;6.40;53.71
56600;BME280;51832;48.152;11.530;2023-02-04T23:35:27;97301.63;;;6.36;53.90
56600;BME280;51832;48.152;11.530;2023-02-04T23:40:28;97318.19;;;6.10;54.30
56600;BME280;51832;48.152;11.530;2023-02-04T23:45:29;97314.00;;;5.99;53.77
56600;BME280;51832;48.152;11.530;2023-02-04T23:50:29;97323.13;;;6.13;53.97
56600;BME280;51832;48.152;11.530;2023-02-04T23:55:31;97322.00;;;5.97;53.19
